sensor_id;sensor_type;location;lat;lon;timestamp;temperature;humidity
4749;DHT22;2388;53.582;9.962;2023-02-10T00:02:21;3.50;99.90
4749;DHT22;2388;53.582;9.962;2023-02-10T00:04:46;3.60;99.90
4749;DHT22;2388;53.582;9.962;2023-02-10T00:07:12;3.60;99.90
4749;DHT22;2388;53.582;9.962;2023-02-10T00:09:37;3.60;99.90
4749;DHT22;2388;53.582;9.962;2023-02-10T00:12:03;3.60;99.90
4749;DHT22;2388;53.582;9.962;2023-02-10T00:14:29;3.60;99.90
4749;DHT22;2388;53.582;9.962;2023-02-10T00:16:56;3.60;99.90
4749;DHT22;2388;53.582;9.962;2023-02-10T00:19:24;3.60;99.90
4749;DHT22;2388;53.582;9.962;2023-02-10T00:21:49;3.60;99.90
4749;DHT22;2388;53.582;9.962;2023-02-10T00:24:15;3.60;99.90
4749;DHT22;2388;53.582;9.962;2023-02-10T00:26:41;3.60;99.90
4749;DHT22;2388;53.582;9.962;2023-02-10T00:29:07;3.60;99.90
4749;DHT22;2388;53.582;9.962;2023-02-10T00:31:32;3.60;99.90
4749;DHT22;2388;53.582;9.962;2023-02-10T00:33:58;3.60;99.90
4749;DHT22;2388;53.582;9.962;2023-02-10T00:36:23;3.60;99.90
4749;DHT22;2388;53.582;9.962;2023-02-10T00:38:50;3.70;99.90
4749;DHT22;2388;53.582;9.962;2023-02-10T00:41:17;3.60;99.90
4749;DHT22;2388;53.582;9.962;2023-02-10T00:43:44;3.70;99.90
4749;DHT22;2388;53.582;9.962;2023-02-10T00:46:10;3.70;99.90
4749;DHT22;2388;53.582;9.962;2023-02-10T00:48:36;3.70;99.90
4749;DHT22;2388;53.582;9.962;2023-02-10T00:51:02;3.70;99.90
4749;DHT22;2388;53.582;9.962;2023-02-10T00:53:28;3.70;99.90
4749;DHT22;2388;53.582;9.962;2023-02-10T00:55:53;3.70;99.90
4749;DHT22;2388;53.582;9.962;2023-02-10T00:58:19;3.70;99.90
4749;DHT22;2388;53.582;9.962;2023-02-10T01:00:45;3.70;99.90
4749;DHT22;2388;53.582;9.962;2023-02-10T01:03:10;3.70;99.90
4749;DHT22;2388;53.582;9.962;2023-02-10T01:05:36;3.70;99.90
4749;DHT22;2388;53.582;9.962;2023-02-10T01:08:02;3.70;99.90
4749;DHT22;2388;53.582;9.962;2023-02-10T01:10:27;3.70;99.90
4749;DHT22;2388;53.582;9.962;2023-02-10T01:12:53;3.80;99.90
4749;DHT22;2388;53.582;9.962;2023-02-10T01:15:19;3.80;99.90
4749;DHT22;2388;53.582;9.962;2023-02-10T01:17:44;3.80;99.90
4749;DHT22;2388;53.582;9.962;2023-02-10T01:20:10;3.80;99.90
4749;DHT22;2388;53.582;9.962;2023-02-10T01:22:36;3.80;99.90
4749;DHT22;2388;53.582;9.962;2023-02-10T01:25:01;3.80;99.90
4749;DHT22;2388;53.582;9.962;2023-02-10T01:27:27;3.80;99.90
4749;DHT22;2388;53.582;9.962;2023-02-10T01:29:53;3.80;99.90
4749;DHT22;2388;53.582;9.962;2023-02-10T01:32:18;3.80;99.90
4749;DHT22;2388;53.582;9.962;2023-02-10T01:34:44;3.90;99.90
4749;DHT22;2388;53.582;9.962;2023-02-10T01:37:09;3.90;99.90
4749;DHT22;2388;53.582;9.962;2023-02-10T01:39:35;3.90;99.90
4749;DHT22;2388;53.582;9.962;2023-02-10T01:42:01;3.90;99.90
4749;DHT22;2388;53.582;9.962;2023-02-10T01:46:53;3.90;99.90
4749;DHT22;2388;53.582;9.962;2023-02-10T01:49:24;3.90;99.90
4749;DHT22;2388;53.582;9.962;2023-02-10T01:52:03;3.90;99.90
4749;DHT22;2388;53.582;9.962;2023-02-10T01:54:35;3.90;99.90
4749;DHT22;2388;53.582;9.962;2023-02-10T01:57:03;3.90;99.90
4749;DHT22;2388;53.582;9.962;2023-02-10T01:59:32;3.90;99.90
4749;DHT22;2388;53.582;9.962;2023-02-10T02:01:59;3.90;99.90
4749;DHT22;2388;53.582;9.962;2023-02-10T02:04:28;3.90;99.90
4749;DHT22;2388;53.582;9.962;2023-02-10T02:06:54;3.90;99.90
4749;DHT22;2388;53.582;9.962;2023-02-10T02:09:19;3.90;99.90
4749;DHT22;2388;53.582;9.962;2023-02-10T02:14:21;3.80;99.90
4749;DHT22;2388;53.582;9.962;2023-02-10T02:20:04;3.80;99.90
4749;DHT22;2388;53.582;9.962;2023-02-10T02:33:36;3.90;99.90
4749;DHT22;2388;53.582;9.962;2023-02-10T02:36:13;3.90;99.90
4749;DHT22;2388;53.582;9.962;2023-02-10T02:38:42;3.90;99.90
4749;DHT22;2388;53.582;9.962;2023-02-10T02:41:09;3.90;99.90
4749;DHT22;2388;53.582;9.962;2023-02-10T02:43:35;3.90;99.90
4749;DHT22;2388;53.582;9.962;2023-02-10T02:46:16;3.80;99.90
4749;DHT22;2388;53.582;9.962;2023-02-10T02:49:34;3.80;99.90
4749;DHT22;2388;53.582;9.962;2023-02-10T02:57:50;3.80;99.90
4749;DHT22;2388;53.582;9.962;2023-02-10T03:00:16;3.80;99.90
4749;DHT22;2388;53.582;9.962;2023-02-10T03:02:43;3.80;99.90
4749;DHT22;2388;53.582;9.962;2023-02-10T03:05:11;3.80;99.90
4749;DHT22;2388;53.582;9.962;2023-02-10T03:07:41;3.80;99.90
4749;DHT22;2388;53.582;9.962;2023-02-10T03:10:07;3.80;99.90
4749;DHT22;2388;53.582;9.962;2023-02-10T03:12:33;3.80;99.90
4749;DHT22;2388;53.582;9.962;2023-02-10T03:14:58;3.80;99.90
4749;DHT22;2388;53.582;9.962;2023-02-10T03:17:23;3.80;99.90
4749;DHT22;2388;53.582;9.962;2023-02-10T03:19:49;3.80;99.90
4749;DHT22;2388;53.582;9.962;2023-02-10T03:22:14;3.70;99.90
4749;DHT22;2388;53.582;9.962;2023-02-10T03:24:40;3.70;99.90
4749;DHT22;2388;53.582;9.962;2023-02-10T03:27:06;3.70;99.90
4749;DHT22;2388;53.582;9.962;2023-02-10T03:29:31;3.70;99.90
4749;DHT22;2388;53.582;9.962;2023-02-10T03:31:57;3.70;99.90
4749;DHT22;2388;53.582;9.962;2023-02-10T03:34:23;3.70;99.90
4749;DHT22;2388;53.582;9.962;2023-02-10T03:36:48;3.70;99.90
4749;DHT22;2388;53.582;9.962;2023-02-10T03:39:14;3.70;99.90
4749;DHT22;2388;53.582;9.962;2023-02-10T03:41:39;3.70;99.90
4749;DHT22;2388;53.582;9.962;2023-02-10T03:44:05;3.70;99.90
4749;DHT22;2388;53.582;9.962;2023-02-10T03:46:31;3.70;99.90
4749;DHT22;2388;53.582;9.962;2023-02-10T03:48:56;3.70;99.90
4749;DHT22;2388;53.582;9.962;2023-02-10T03:51:22;3.70;99.90
4749;DHT22;2388;53.582;9.962;2023-02-10T03:53:47;3.70;99.90
4749;DHT22;2388;53.582;9.962;2023-02-10T03:56:13;3.60;99.90
4749;DHT22;2388;53.582;9.962;2023-02-10T03:58:38;3.70;99.90
4749;DHT22;2388;53.582;9.962;2023-02-10T04:01:12;3.60;99.90
4749;DHT22;2388;53.582;9.962;2023-02-10T04:03:38;3.70;99.90
4749;DHT22;2388;53.582;9.962;2023-02-10T04:06:04;3.60;99.90
4749;DHT22;2388;53.582;9.962;2023-02-10T04:08:29;3.60;99.90
4749;DHT22;2388;53.582;9.962;2023-02-10T04:10:55;3.60;99.90
4749;DHT22;2388;53.582;9.962;2023-02-10T04:13:20;3.60;99.90
4749;DHT22;2388;53.582;9.962;2023-02-10T04:15:46;3.60;99.90
4749;DHT22;2388;53.582;9.962;2023-02-10T04:18:13;3.60;99.90
4749;DHT22;2388;53.582;9.962;2023-02-10T04:20:38;3.60;99.90
4749;DHT22;2388;53.582;9.962;2023-02-10T04:23:03;3.60;99.90
4749;DHT22;2388;53.582;9.962;2023-02-10T04:25:29;3.60;99.90
4749;DHT22;2388;53.582;9.962;2023-02-10T04:27:54;3.60;99.90
4749;DHT22;2388;53.582;9.962;2023-02-10T04:30:20;3.60;99.90
4749;DHT22;2388;53.582;9.962;2023-02-10T04:32:46;3.60;99.90
4749;DHT22;2388;53.582;9.962;2023-02-10T04:35:11;3.60;99.90
4749;DHT22;2388;53.582;9.962;2023-02-10T04:37:37;3.50;99.90
4749;DHT22;2388;53.582;9.962;2023-02-10T04:40:03;3.50;99.90
4749;DHT22;2388;53.582;9.962;2023-02-10T04:42:28;3.50;99.90
4749;DHT22;2388;53.582;9.962;2023-02-10T04:44:58;3.50;99.90
4749;DHT22;2388;53.582;9.962;2023-02-10T04:47:27;2.80;99.90
4749;DHT22;2388;53.582;9.962;2023-02-10T04:49:53;3.50;99.90
4749;DHT22;2388;53.582;9.962;2023-02-10T04:52:19;3.40;99.90
4749;DHT22;2388;53.582;9.962;2023-02-10T04:54:45;3.50;99.90
4749;DHT22;2388;53.582;9.962;2023-02-10T04:57:11;3.50;99.90
4749;DHT22;2388;53.582;9.962;2023-02-10T04:59:37;3.50;99.90
4749;DHT22;2388;53.582;9.962;2023-02-10T05:02:02;3.40;99.90
4749;DHT22;2388;53.582;9.962;2023-02-10T05:04:28;3.50;99.90
4749;DHT22;2388;53.582;9.962;2023-02-10T05:06:53;3.40;99.90
4749;DHT22;2388;53.582;9.962;2023-02-10T05:09:23;3.40;99.90
4749;DHT22;2388;53.582;9.962;2023-02-10T05:11:49;3.40;99.90
4749;DHT22;2388;53.582;9.962;2023-02-10T05:14:14;3.40;99.90
4749;DHT22;2388;53.582;9.962;2023-02-10T05:16:40;3.40;99.90
4749;DHT22;2388;53.582;9.962;2023-02-10T05:19:05;3.50;99.90
4749;DHT22;2388;53.582;9.962;2023-02-10T05:21:31;3.50;99.90
4749;DHT22;2388;53.582;9.962;2023-02-10T05:23:57;3.50;99.90
4749;DHT22;2388;53.582;9.962;2023-02-10T05:26:23;3.50;99.90
4749;DHT22;2388;53.582;9.962;2023-02-10T05:28:48;3.50;99.90
4749;DHT22;2388;53.582;9.962;2023-02-10T05:31:14;3.50;99.90
4749;DHT22;2388;53.582;9.962;2023-02-10T05:33:39;3.50;99.90
4749;DHT22;2388;53.582;9.962;2023-02-10T05:36:05;3.50;99.90
4749;DHT22;2388;53.582;9.962;2023-02-10T05:38:31;3.50;99.90
4749;DHT22;2388;53.582;9.962;2023-02-10T05:40:56;3.50;99.90
4749;DHT22;2388;53.582;9.962;2023-02-10T05:43:22;3.50;99.90
4749;DHT22;2388;53.582;9.962;2023-02-10T05:45:47;3.50;99.90
4749;DHT22;2388;53.582;9.962;2023-02-10T05:48:13;3.50;99.90
4749;DHT22;2388;53.582;9.962;2023-02-10T05:50:39;3.50;99.90
4749;DHT22;2388;53.582;9.962;2023-02-10T05:53:05;3.50;99.90
4749;DHT22;2388;53.582;9.962;2023-02-10T05:55:31;3.50;99.90
4749;DHT22;2388;53.582;9.962;2023-02-10T05:57:57;3.40;99.90
4749;DHT22;2388;53.582;9.962;2023-02-10T06:00:23;3.50;99.90
4749;DHT22;2388;53.582;9.962;2023-02-10T06:02:48;3.50;99.90
4749;DHT22;2388;53.582;9.962;2023-02-10T06:05:14;3.40;99.90
4749;DHT22;2388;53.582;9.962;2023-02-10T06:07:40;3.40;99.90
4749;DHT22;2388;53.582;9.962;2023-02-10T06:10:06;3.50;99.90
4749;DHT22;2388;53.582;9.962;2023-02-10T06:12:32;3.50;99.90
4749;DHT22;2388;53.582;9.962;2023-02-10T06:14:57;3.40;99.90
4749;DHT22;2388;53.582;9.962;2023-02-10T06:17:23;3.40;99.90
4749;DHT22;2388;53.582;9.962;2023-02-10T06:19:49;3.40;99.90
4749;DHT22;2388;53.582;9.962;2023-02-10T06:22:15;3.40;99.90
4749;DHT22;2388;53.582;9.962;2023-02-10T06:24:40;3.40;99.90
4749;DHT22;2388;53.582;9.962;2023-02-10T06:27:06;3.40;99.90
4749;DHT22;2388;53.582;9.962;2023-02-10T06:29:32;3.50;99.90
4749;DHT22;2388;53.582;9.962;2023-02-10T06:31:57;3.40;99.90
4749;DHT22;2388;53.582;9.962;2023-02-10T06:34:23;3.40;99.90
4749;DHT22;2388;53.582;9.962;2023-02-10T06:36:49;3.40;99.90
4749;DHT22;2388;53.582;9.962;2023-02-10T06:39:14;3.40;99.90
4749;DHT22;2388;53.582;9.962;2023-02-10T06:41:40;3.40;99.90
4749;DHT22;2388;53.582;9.962;2023-02-10T06:44:06;3.40;99.90
4749;DHT22;2388;53.582;9.962;2023-02-10T06:46:32;3.00;99.90
4749;DHT22;2388;53.582;9.962;2023-02-10T06:48:57;3.40;99.90
4749;DHT22;2388;53.582;9.962;2023-02-10T06:51:25;3.40;99.90
4749;DHT22;2388;53.582;9.962;2023-02-10T06:53:50;3.40;99.90
4749;DHT22;2388;53.582;9.962;2023-02-10T06:56:16;3.40;99.90
4749;DHT22;2388;53.582;9.962;2023-02-10T06:58:41;3.30;99.90
4749;DHT22;2388;53.582;9.962;2023-02-10T07:01:12;3.30;99.90
4749;DHT22;2388;53.582;9.962;2023-02-10T07:03:38;3.30;99.90
4749;DHT22;2388;53.582;9.962;2023-02-10T07:06:04;3.30;99.90
4749;DHT22;2388;53.582;9.962;2023-02-10T07:08:30;3.30;99.90
4749;DHT22;2388;53.582;9.962;2023-02-10T07:10:56;3.30;99.90
4749;DHT22;2388;53.582;9.962;2023-02-10T07:13:21;3.30;99.90
4749;DHT22;2388;53.582;9.962;2023-02-10T07:15:47;3.30;99.90
4749;DHT22;2388;53.582;9.962;2023-02-10T07:18:12;3.30;99.90
4749;DHT22;2388;53.582;9.962;2023-02-10T07:20:38;3.30;99.90
4749;DHT22;2388;53.582;9.962;2023-02-10T07:23:03;3.30;99.90
4749;DHT22;2388;53.582;9.962;2023-02-10T07:25:29;3.40;99.90
4749;DHT22;2388;53.582;9.962;2023-02-10T07:27:54;3.40;99.90
4749;DHT22;2388;53.582;9.962;2023-02-10T07:30:20;3.40;99.90
4749;DHT22;2388;53.582;9.962;2023-02-10T07:32:45;3.40;99.90
4749;DHT22;2388;53.582;9.962;2023-02-10T07:35:11;3.40;99.90
4749;DHT22;2388;53.582;9.962;2023-02-10T07:37:37;3.40;99.90
4749;DHT22;2388;53.582;9.962;2023-02-10T07:40:03;3.40;99.90
4749;DHT22;2388;53.582;9.962;2023-02-10T07:42:28;3.40;99.90
4749;DHT22;2388;53.582;9.962;2023-02-10T07:44:54;3.50;99.90
4749;DHT22;2388;53.582;9.962;2023-02-10T07:47:19;3.50;99.90
4749;DHT22;2388;53.582;9.962;2023-02-10T07:49:45;3.50;99.90
4749;DHT22;2388;53.582;9.962;2023-02-10T07:52:10;3.50;99.90
4749;DHT22;2388;53.582;9.962;2023-02-10T07:54:36;3.60;99.90
4749;DHT22;2388;53.582;9.962;2023-02-10T07:57:02;3.60;99.90
4749;DHT22;2388;53.582;9.962;2023-02-10T07:59:27;3.60;99.90
4749;DHT22;2388;53.582;9.962;2023-02-10T08:01:53;3.60;99.90
4749;DHT22;2388;53.582;9.962;2023-02-10T08:04:18;3.60;99.90
4749;DHT22;2388;53.582;9.962;2023-02-10T08:06:44;3.60;99.90
4749;DHT22;2388;53.582;9.962;2023-02-10T08:09:09;3.70;99.90
4749;DHT22;2388;53.582;9.962;2023-02-10T08:11:35;3.70;99.90
4749;DHT22;2388;53.582;9.962;2023-02-10T08:14:02;3.70;99.90
4749;DHT22;2388;53.582;9.962;2023-02-10T08:16:27;3.70;99.90
4749;DHT22;2388;53.582;9.962;2023-02-10T08:18:53;3.70;99.90
4749;DHT22;2388;53.582;9.962;2023-02-10T08:21:18;3.80;99.90
4749;DHT22;2388;53.582;9.962;2023-02-10T08:23:44;3.80;99.90
4749;DHT22;2388;53.582;9.962;2023-02-10T08:26:12;3.80;99.90
4749;DHT22;2388;53.582;9.962;2023-02-10T08:28:38;3.80;99.90
4749;DHT22;2388;53.582;9.962;2023-02-10T08:31:06;3.80;99.90
4749;DHT22;2388;53.582;9.962;2023-02-10T08:33:36;3.80;99.90
4749;DHT22;2388;53.582;9.962;2023-02-10T08:36:07;3.80;99.90
4749;DHT22;2388;53.582;9.962;2023-02-10T08:38:33;3.80;99.90
4749;DHT22;2388;53.582;9.962;2023-02-10T08:40:59;3.90;99.90
4749;DHT22;2388;53.582;9.962;2023-02-10T08:43:25;3.90;99.90
4749;DHT22;2388;53.582;9.962;2023-02-10T08:45:51;3.90;99.90
4749;DHT22;2388;53.582;9.962;2023-02-10T08:48:17;3.90;99.90
4749;DHT22;2388;53.582;9.962;2023-02-10T08:50:43;4.00;99.90
4749;DHT22;2388;53.582;9.962;2023-02-10T08:53:09;3.90;99.90
4749;DHT22;2388;53.582;9.962;2023-02-10T08:55:35;4.00;99.90
4749;DHT22;2388;53.582;9.962;2023-02-10T08:58:01;4.20;99.90
4749;DHT22;2388;53.582;9.962;2023-02-10T09:00:27;4.40;99.90
4749;DHT22;2388;53.582;9.962;2023-02-10T09:02:53;4.50;99.90
4749;DHT22;2388;53.582;9.962;2023-02-10T09:05:18;4.60;99.90
4749;DHT22;2388;53.582;9.962;2023-02-10T09:07:44;4.60;99.90
4749;DHT22;2388;53.582;9.962;2023-02-10T09:10:11;4.60;99.90
4749;DHT22;2388;53.582;9.962;2023-02-10T09:12:39;4.60;99.90
4749;DHT22;2388;53.582;9.962;2023-02-10T09:15:05;4.60;99.90
4749;DHT22;2388;53.582;9.962;2023-02-10T09:17:30;4.60;99.90
4749;DHT22;2388;53.582;9.962;2023-02-10T09:19:56;4.50;99.90
4749;DHT22;2388;53.582;9.962;2023-02-10T09:22:21;4.50;99.90
4749;DHT22;2388;53.582;9.962;2023-02-10T09:24:48;4.50;99.90
4749;DHT22;2388;53.582;9.962;2023-02-10T09:27:15;4.50;99.90
4749;DHT22;2388;53.582;9.962;2023-02-10T09:29:41;4.60;99.90
4749;DHT22;2388;53.582;9.962;2023-02-10T09:32:06;4.70;99.90
4749;DHT22;2388;53.582;9.962;2023-02-10T09:34:32;4.70;99.90
4749;DHT22;2388;53.582;9.962;2023-02-10T09:36:57;4.70;99.90
4749;DHT22;2388;53.582;9.962;2023-02-10T09:39:26;4.70;99.90
4749;DHT22;2388;53.582;9.962;2023-02-10T09:44:34;4.90;99.90
4749;DHT22;2388;53.582;9.962;2023-02-10T09:47:17;5.00;99.90
4749;DHT22;2388;53.582;9.962;2023-02-10T09:50:15;5.00;99.90
4749;DHT22;2388;53.582;9.962;2023-02-10T09:53:08;4.80;99.90
4749;DHT22;2388;53.582;9.962;2023-02-10T09:55:49;4.60;99.90
4749;DHT22;2388;53.582;9.962;2023-02-10T09:58:39;4.50;99.90
4749;DHT22;2388;53.582;9.962;2023-02-10T10:04:10;4.40;99.90
4749;DHT22;2388;53.582;9.962;2023-02-10T10:06:43;4.40;99.90
4749;DHT22;2388;53.582;9.962;2023-02-10T10:11:49;4.40;99.90
4749;DHT22;2388;53.582;9.962;2023-02-10T10:14:27;4.40;99.90
4749;DHT22;2388;53.582;9.962;2023-02-10T10:17:33;4.40;99.90
4749;DHT22;2388;53.582;9.962;2023-02-10T10:20:29;4.30;99.90
4749;DHT22;2388;53.582;9.962;2023-02-10T10:23:29;4.40;99.90
4749;DHT22;2388;53.582;9.962;2023-02-10T10:31:28;4.40;99.90
4749;DHT22;2388;53.582;9.962;2023-02-10T10:34:03;4.50;99.90
4749;DHT22;2388;53.582;9.962;2023-02-10T10:36:36;4.50;99.90
4749;DHT22;2388;53.582;9.962;2023-02-10T10:41:38;4.50;99.90
4749;DHT22;2388;53.582;9.962;2023-02-10T10:44:05;4.50;99.90
4749;DHT22;2388;53.582;9.962;2023-02-10T10:46:39;4.60;99.90
4749;DHT22;2388;53.582;9.962;2023-02-10T10:49:06;4.60;99.90
4749;DHT22;2388;53.582;9.962;2023-02-10T10:51:32;4.60;99.90
4749;DHT22;2388;53.582;9.962;2023-02-10T10:54:00;4.70;99.90
4749;DHT22;2388;53.582;9.962;2023-02-10T10:56:42;4.70;99.90
4749;DHT22;2388;53.582;9.962;2023-02-10T11:01:40;4.80;99.90
4749;DHT22;2388;53.582;9.962;2023-02-10T11:04:11;4.80;99.90
4749;DHT22;2388;53.582;9.962;2023-02-10T11:06:38;4.90;99.90
4749;DHT22;2388;53.582;9.962;2023-02-10T11:09:13;4.90;99.90
4749;DHT22;2388;53.582;9.962;2023-02-10T11:11:42;5.00;99.90
4749;DHT22;2388;53.582;9.962;2023-02-10T11:14:17;5.00;99.90
4749;DHT22;2388;53.582;9.962;2023-02-10T11:16:50;5.00;99.90
4749;DHT22;2388;53.582;9.962;2023-02-10T11:19:25;5.10;99.90
4749;DHT22;2388;53.582;9.962;2023-02-10T11:21:51;5.10;99.90
4749;DHT22;2388;53.582;9.962;2023-02-10T11:27:14;5.20;99.90
4749;DHT22;2388;53.582;9.962;2023-02-10T11:29:49;5.30;99.90
4749;DHT22;2388;53.582;9.962;2023-02-10T11:32:33;5.40;99.90
4749;DHT22;2388;53.582;9.962;2023-02-10T11:35:02;5.50;99.90
4749;DHT22;2388;53.582;9.962;2023-02-10T11:37:31;5.60;99.90
4749;DHT22;2388;53.582;9.962;2023-02-10T11:39:59;5.70;99.90
4749;DHT22;2388;53.582;9.962;2023-02-10T11:42:32;5.70;99.90
4749;DHT22;2388;53.582;9.962;2023-02-10T11:47:36;5.90;99.90
4749;DHT22;2388;53.582;9.962;2023-02-10T11:50:04;6.00;99.90
4749;DHT22;2388;53.582;9.962;2023-02-10T11:52:43;6.10;99.90
4749;DHT22;2388;53.582;9.962;2023-02-10T11:55:12;6.20;99.90
4749;DHT22;2388;53.582;9.962;2023-02-10T11:58:00;6.20;99.90
4749;DHT22;2388;53.582;9.962;2023-02-10T12:03:46;6.30;99.90
4749;DHT22;2388;53.582;9.962;2023-02-10T12:09:25;6.50;99.90
4749;DHT22;2388;53.582;9.962;2023-02-10T12:17:23;6.70;99.90
4749;DHT22;2388;53.582;9.962;2023-02-10T12:23:08;6.80;99.90
4749;DHT22;2388;53.582;9.962;2023-02-10T12:31:23;6.90;99.90
4749;DHT22;2388;53.582;9.962;2023-02-10T12:42:44;7.10;99.90
4749;DHT22;2388;53.582;9.962;2023-02-10T12:45:42;7.10;99.90
4749;DHT22;2388;53.582;9.962;2023-02-10T12:51:17;7.10;99.90
4749;DHT22;2388;53.582;9.962;2023-02-10T12:53:48;7.10;99.90
4749;DHT22;2388;53.582;9.962;2023-02-10T12:56:24;7.10;99.90
4749;DHT22;2388;53.582;9.962;2023-02-10T12:59:04;7.10;99.90
4749;DHT22;2388;53.582;9.962;2023-02-10T13:01:37;7.10;99.90
4749;DHT22;2388;53.582;9.962;2023-02-10T13:04:30;7.10;99.90
4749;DHT22;2388;53.582;9.962;2023-02-10T13:07:04;7.20;99.90
4749;DHT22;2388;53.582;9.962;2023-02-10T13:09:42;7.40;99.90
4749;DHT22;2388;53.582;9.962;2023-02-10T13:12:13;7.50;99.90
4749;DHT22;2388;53.582;9.962;2023-02-10T13:14:42;7.50;99.90
4749;DHT22;2388;53.582;9.962;2023-02-10T13:35:22;7.80;99.90
4749;DHT22;2388;53.582;9.962;2023-02-10T13:37:56;7.80;99.90
4749;DHT22;2388;53.582;9.962;2023-02-10T13:40:26;7.80;99.90
4749;DHT22;2388;53.582;9.962;2023-02-10T13:42:55;7.70;99.90
4749;DHT22;2388;53.582;9.962;2023-02-10T13:45:24;7.70;99.90
4749;DHT22;2388;53.582;9.962;2023-02-10T13:47:56;7.70;99.90
4749;DHT22;2388;53.582;9.962;2023-02-10T13:50:28;7.60;99.90
4749;DHT22;2388;53.582;9.962;2023-02-10T13:53:00;7.60;99.90
4749;DHT22;2388;53.582;9.962;2023-02-10T14:00:49;7.50;99.90
4749;DHT22;2388;53.582;9.962;2023-02-10T14:06:03;7.50;99.90
4749;DHT22;2388;53.582;9.962;2023-02-10T14:08:38;7.40;99.90
4749;DHT22;2388;53.582;9.962;2023-02-10T14:13:39;7.30;99.90
4749;DHT22;2388;53.582;9.962;2023-02-10T14:16:26;7.20;99.90
4749;DHT22;2388;53.582;9.962;2023-02-10T14:19:02;7.20;99.90
4749;DHT22;2388;53.582;9.962;2023-02-10T14:21:42;7.20;99.90
4749;DHT22;2388;53.582;9.962;2023-02-10T14:24:22;7.20;99.90
4749;DHT22;2388;53.582;9.962;2023-02-10T14:26:49;7.20;99.90
4749;DHT22;2388;53.582;9.962;2023-02-10T14:29:17;7.20;99.90
4749;DHT22;2388;53.582;9.962;2023-02-10T14:31:45;7.20;99.90
4749;DHT22;2388;53.582;9.962;2023-02-10T14:34:36;7.30;99.90
4749;DHT22;2388;53.582;9.962;2023-02-10T14:37:19;7.20;99.90
4749;DHT22;2388;53.582;9.962;2023-02-10T14:39:59;7.10;99.90
4749;DHT22;2388;53.582;9.962;2023-02-10T14:42:27;7.10;99.90
4749;DHT22;2388;53.582;9.962;2023-02-10T14:44:56;7.10;99.90
4749;DHT22;2388;53.582;9.962;2023-02-10T14:47:27;7.10;99.90
4749;DHT22;2388;53.582;9.962;2023-02-10T14:49:55;7.00;99.90
4749;DHT22;2388;53.582;9.962;2023-02-10T14:52:24;7.00;99.90
4749;DHT22;2388;53.582;9.962;2023-02-10T14:54:50;7.00;99.90
4749;DHT22;2388;53.582;9.962;2023-02-10T14:57:19;7.00;99.90
4749;DHT22;2388;53.582;9.962;2023-02-10T14:59:52;7.00;99.90
4749;DHT22;2388;53.582;9.962;2023-02-10T15:02:21;6.90;99.90
4749;DHT22;2388;53.582;9.962;2023-02-10T15:04:49;6.90;99.90
4749;DHT22;2388;53.582;9.962;2023-02-10T15:07:20;6.90;99.90
4749;DHT22;2388;53.582;9.962;2023-02-10T15:09:46;6.90;99.90
4749;DHT22;2388;53.582;9.962;2023-02-10T15:12:16;6.90;99.90
4749;DHT22;2388;53.582;9.962;2023-02-10T15:17:29;6.90;99.90
4749;DHT22;2388;53.582;9.962;2023-02-10T15:22:42;6.80;99.90
4749;DHT22;2388;53.582;9.962;2023-02-10T15:33:32;6.80;99.90
4749;DHT22;2388;53.582;9.962;2023-02-10T15:36:33;6.80;99.90
4749;DHT22;2388;53.582;9.962;2023-02-10T15:39:05;6.80;99.90
4749;DHT22;2388;53.582;9.962;2023-02-10T15:41:38;6.70;99.90
4749;DHT22;2388;53.582;9.962;2023-02-10T15:46:53;6.70;99.90
4749;DHT22;2388;53.582;9.962;2023-02-10T15:49:20;6.70;99.90
4749;DHT22;2388;53.582;9.962;2023-02-10T15:51:49;6.70;99.90
4749;DHT22;2388;53.582;9.962;2023-02-10T15:54:19;6.70;99.90
4749;DHT22;2388;53.582;9.962;2023-02-10T15:56:59;6.60;99.90
4749;DHT22;2388;53.582;9.962;2023-02-10T15:59:25;6.60;99.90
4749;DHT22;2388;53.582;9.962;2023-02-10T16:01:57;6.60;99.90
4749;DHT22;2388;53.582;9.962;2023-02-10T16:04:24;6.60;99.90
4749;DHT22;2388;53.582;9.962;2023-02-10T16:06:50;6.50;99.90
4749;DHT22;2388;53.582;9.962;2023-02-10T16:09:16;6.50;99.90
4749;DHT22;2388;53.582;9.962;2023-02-10T16:11:42;6.60;99.90
4749;DHT22;2388;53.582;9.962;2023-02-10T16:14:07;6.50;99.90
4749;DHT22;2388;53.582;9.962;2023-02-10T16:16:33;6.50;99.90
4749;DHT22;2388;53.582;9.962;2023-02-10T16:19:01;6.50;99.90
4749;DHT22;2388;53.582;9.962;2023-02-10T16:21:26;6.50;99.90
4749;DHT22;2388;53.582;9.962;2023-02-10T16:23:52;6.40;99.90
4749;DHT22;2388;53.582;9.962;2023-02-10T16:26:22;6.40;99.90
4749;DHT22;2388;53.582;9.962;2023-02-10T16:28:49;6.50;99.90
4749;DHT22;2388;53.582;9.962;2023-02-10T16:31:15;6.40;99.90
4749;DHT22;2388;53.582;9.962;2023-02-10T16:33:43;6.40;99.90
4749;DHT22;2388;53.582;9.962;2023-02-10T16:36:13;6.60;99.90
4749;DHT22;2388;53.582;9.962;2023-02-10T16:38:40;6.70;99.90
4749;DHT22;2388;53.582;9.962;2023-02-10T16:41:05;6.60;99.90
4749;DHT22;2388;53.582;9.962;2023-02-10T16:43:31;6.50;99.90
4749;DHT22;2388;53.582;9.962;2023-02-10T16:45:56;6.50;99.90
4749;DHT22;2388;53.582;9.962;2023-02-10T16:48:22;6.50;99.90
4749;DHT22;2388;53.582;9.962;2023-02-10T16:50:47;6.40;99.90
4749;DHT22;2388;53.582;9.962;2023-02-10T16:53:13;6.50;99.90
4749;DHT22;2388;53.582;9.962;2023-02-10T16:55:39;6.40;99.90
4749;DHT22;2388;53.582;9.962;2023-02-10T16:58:05;6.40;99.90
4749;DHT22;2388;53.582;9.962;2023-02-10T17:00:31;6.40;99.90
4749;DHT22;2388;53.582;9.962;2023-02-10T17:02:58;6.40;99.90
4749;DHT22;2388;53.582;9.962;2023-02-10T17:05:25;6.40;99.90
4749;DHT22;2388;53.582;9.962;2023-02-10T17:07:50;6.40;99.90
4749;DHT22;2388;53.582;9.962;2023-02-10T17:10:23;6.40;99.90
4749;DHT22;2388;53.582;9.962;2023-02-10T17:12:50;6.40;99.90
4749;DHT22;2388;53.582;9.962;2023-02-10T17:15:16;6.30;99.90
4749;DHT22;2388;53.582;9.962;2023-02-10T17:17:42;6.30;99.90
4749;DHT22;2388;53.582;9.962;2023-02-10T17:20:26;6.30;99.90
4749;DHT22;2388;53.582;9.962;2023-02-10T17:22:52;6.30;99.90
4749;DHT22;2388;53.582;9.962;2023-02-10T17:25:18;6.30;99.90
4749;DHT22;2388;53.582;9.962;2023-02-10T17:27:44;6.30;99.90
4749;DHT22;2388;53.582;9.962;2023-02-10T17:30:12;6.20;99.90
4749;DHT22;2388;53.582;9.962;2023-02-10T17:32:38;6.20;99.90
4749;DHT22;2388;53.582;9.962;2023-02-10T17:35:05;6.20;99.90
4749;DHT22;2388;53.582;9.962;2023-02-10T17:37:31;6.20;99.90
4749;DHT22;2388;53.582;9.962;2023-02-10T17:39:56;6.30;99.90
4749;DHT22;2388;53.582;9.962;2023-02-10T17:42:37;6.20;99.90
4749;DHT22;2388;53.582;9.962;2023-02-10T17:45:02;6.30;99.90
4749;DHT22;2388;53.582;9.962;2023-02-10T17:47:28;6.20;99.90
4749;DHT22;2388;53.582;9.962;2023-02-10T17:49:53;6.20;99.90
4749;DHT22;2388;53.582;9.962;2023-02-10T17:52:19;6.20;99.90
4749;DHT22;2388;53.582;9.962;2023-02-10T17:54:44;6.20;99.90
4749;DHT22;2388;53.582;9.962;2023-02-10T17:57:10;6.20;99.90
4749;DHT22;2388;53.582;9.962;2023-02-10T17:59:40;6.20;99.90
4749;DHT22;2388;53.582;9.962;2023-02-10T18:02:09;6.10;99.90
4749;DHT22;2388;53.582;9.962;2023-02-10T18:04:34;6.10;99.90
4749;DHT22;2388;53.582;9.962;2023-02-10T18:07:00;6.10;99.90
4749;DHT22;2388;53.582;9.962;2023-02-10T18:09:25;6.00;99.90
4749;DHT22;2388;53.582;9.962;2023-02-10T18:11:53;6.00;99.90
4749;DHT22;2388;53.582;9.962;2023-02-10T18:14:18;6.00;99.90
4749;DHT22;2388;53.582;9.962;2023-02-10T18:16:44;6.00;99.90
4749;DHT22;2388;53.582;9.962;2023-02-10T18:19:09;6.10;99.90
4749;DHT22;2388;53.582;9.962;2023-02-10T18:21:35;6.00;99.90
4749;DHT22;2388;53.582;9.962;2023-02-10T18:24:01;6.00;99.90
4749;DHT22;2388;53.582;9.962;2023-02-10T18:26:26;6.00;99.90
4749;DHT22;2388;53.582;9.962;2023-02-10T18:28:52;5.90;99.90
4749;DHT22;2388;53.582;9.962;2023-02-10T18:31:18;6.00;99.90
4749;DHT22;2388;53.582;9.962;2023-02-10T18:33:44;5.90;99.90